sensor_id;sensor_type;location;lat;lon;timestamp;pressure;altitude;pressure_sealevel;temperature;humidity
15487;BME280;7845;53.698;10.078;2024-01-15T00:01:46;98889.44;;;2.67;87.88
15487;BME280;7845;53.698;10.078;2024-01-15T00:04:12;98874.81;;;2.66;87.85
15487;BME280;7845;53.698;10.078;2024-01-15T00:06:37;98879.19;;;2.66;87.99
15487;BME280;7845;53.698;10.078;2024-01-15T00:09:02;98871.75;;;2.61;87.85
15487;BME280;7845;53.698;10.078;2024-01-15T00:11:28;98758.19;;;1.93;88.26
15487;BME280;7845;53.698;10.078;2024-01-15T00:13:53;98874.94;;;2.65;88.03
15487;BME280;7845;53.698;10.078;2024-01-15T00:16:18;98810.88;;;2.30;87.88
15487;BME280;7845;53.698;10.078;2024-01-15T00:18:43;98870.88;;;2.73;87.80
15487;BME280;7845;53.698;10.078;2024-01-15T00:21:09;98862.09;;;2.76;87.41
15487;BME280;7845;53.698;10.078;2024-01-15T00:23:34;98866.66;;;2.72;87.60
15487;BME280;7845;53.698;10.078;2024-01-15T00:26:00;98853.56;;;2.74;87.65
15487;BME280;7845;53.698;10.078;2024-01-15T00:28:25;98838.88;;;2.74;87.89
15487;BME280;7845;53.698;10.078;2024-01-15T00:30:51;98846.53;;;2.76;87.92
15487;BME280;7845;53.698;10.078;2024-01-15T00:33:16;98839.56;;;2.76;87.82
15487;BME280;7845;53.698;10.078;2024-01-15T00:35:41;98829.34;;;2.75;87.77
15487;BME280;7845;53.698;10.078;2024-01-15T00:38:07;98833.59;;;2.76;87.98
15487;BME280;7845;53.698;10.078;2024-01-15T00:40:32;98762.25;;;2.46;87.66
15487;BME280;7845;53.698;10.078;2024-01-15T00:42:58;98795.94;;;2.83;87.91
15487;BME280;7845;53.698;10.078;2024-01-15T00:45:23;98688.50;;;2.16;87.81
15487;BME280;7845;53.698;10.078;2024-01-15T00:47:48;98787.56;;;2.79;87.54
15487;BME280;7845;53.698;10.078;2024-01-15T00:50:14;98802.06;;;2.82;87.59
15487;BME280;7845;53.698;10.078;2024-01-15T00:52:40;98793.22;;;2.84;87.22
15487;BME280;7845;53.698;10.078;2024-01-15T00:55:05;98796.56;;;2.86;87.58
15487;BME280;7845;53.698;10.078;2024-01-15T00:57:32;98784.63;;;2.84;87.51
15487;BME280;7845;53.698;10.078;2024-01-15T00:59:58;98769.59;;;2.89;87.56
15487;BME280;7845;53.698;10.078;2024-01-15T01:02:23;98776.84;;;2.84;87.58
15487;BME280;7845;53.698;10.078;2024-01-15T01:04:48;98775.81;;;2.86;87.86
15487;BME280;7845;53.698;10.078;2024-01-15T01:07:14;98785.56;;;2.83;87.50
15487;BME280;7845;53.698;10.078;2024-01-15T01:09:39;98764.63;;;2.86;87.88
15487;BME280;7845;53.698;10.078;2024-01-15T01:12:04;98702.47;;;2.49;87.64
15487;BME280;7845;53.698;10.078;2024-01-15T01:14:30;98748.13;;;2.87;87.89
15487;BME280;7845;53.698;10.078;2024-01-15T01:16:55;98775.41;;;2.80;88.05
15487;BME280;7845;53.698;10.078;2024-01-15T01:19:20;98774.47;;;2.81;88.02
15487;BME280;7845;53.698;10.078;2024-01-15T01:21:46;98773.16;;;2.75;87.92
15487;BME280;7845;53.698;10.078;2024-01-15T01:24:11;98689.00;;;2.21;87.37
15487;BME280;7845;53.698;10.078;2024-01-15T01:26:36;98764.34;;;2.78;87.67
15487;BME280;7845;53.698;10.078;2024-01-15T01:29:02;98765.47;;;2.74;87.65
15487;BME280;7845;53.698;10.078;2024-01-15T01:31:27;98754.84;;;2.66;87.62
15487;BME280;7845;53.698;10.078;2024-01-15T01:33:53;98774.38;;;2.46;88.23
15487;BME280;7845;53.698;10.078;2024-01-15T01:36:18;98770.13;;;2.45;88.59
15487;BME280;7845;53.698;10.078;2024-01-15T01:38:43;98758.00;;;2.45;89.08
15487;BME280;7845;53.698;10.078;2024-01-15T01:41:08;98762.88;;;2.50;89.26
15487;BME280;7845;53.698;10.078;2024-01-15T01:43:34;98761.94;;;2.51;89.63
15487;BME280;7845;53.698;10.078;2024-01-15T01:46:00;98753.78;;;2.44;88.99
15487;BME280;7845;53.698;10.078;2024-01-15T01:48:26;98765.06;;;2.43;89.05
15487;BME280;7845;53.698;10.078;2024-01-15T01:50:57;98771.03;;;2.57;89.04
15487;BME280;7845;53.698;10.078;2024-01-15T01:53:23;98683.34;;;2.03;88.55
15487;BME280;7845;53.698;10.078;2024-01-15T01:55:49;98767.53;;;2.58;89.08
15487;BME280;7845;53.698;10.078;2024-01-15T01:58:15;98755.28;;;2.60;88.86
15487;BME280;7845;53.698;10.078;2024-01-15T02:00:41;98759.63;;;2.59;89.11
15487;BME280;7845;53.698;10.078;2024-01-15T02:03:07;98755.88;;;2.63;89.24
15487;BME280;7845;53.698;10.078;2024-01-15T02:05:35;98752.91;;;2.57;89.14
15487;BME280;7845;53.698;10.078;2024-01-15T02:08:00;98765.19;;;2.66;89.41
15487;BME280;7845;53.698;10.078;2024-01-15T02:10:25;98754.03;;;2.65;89.19
15487;BME280;7845;53.698;10.078;2024-01-15T02:12:51;98760.75;;;2.68;89.01
15487;BME280;7845;53.698;10.078;2024-01-15T02:15:16;98750.16;;;2.71;89.15
15487;BME280;7845;53.698;10.078;2024-01-15T02:17:57;98746.66;;;2.72;89.12
15487;BME280;7845;53.698;10.078;2024-01-15T02:20:23;98753.38;;;2.74;89.64
15487;BME280;7845;53.698;10.078;2024-01-15T02:22:48;98746.28;;;2.76;89.55
15487;BME280;7845;53.698;10.078;2024-01-15T02:25:13;98740.78;;;2.81;89.74
15487;BME280;7845;53.698;10.078;2024-01-15T02:27:39;98735.22;;;2.74;89.28
15487;BME280;7845;53.698;10.078;2024-01-15T02:30:05;98737.38;;;2.80;89.46
15487;BME280;7845;53.698;10.078;2024-01-15T02:32:31;98740.47;;;2.85;89.45
15487;BME280;7845;53.698;10.078;2024-01-15T02:34:57;98738.19;;;2.81;89.02
15487;BME280;7845;53.698;10.078;2024-01-15T02:37:22;98746.88;;;2.69;89.00
15487;BME280;7845;53.698;10.078;2024-01-15T02:39:47;98731.88;;;2.61;89.30
15487;BME280;7845;53.698;10.078;2024-01-15T02:42:12;98724.31;;;2.58;89.09
15487;BME280;7845;53.698;10.078;2024-01-15T02:44:38;98721.28;;;2.64;89.55
15487;BME280;7845;53.698;10.078;2024-01-15T02:47:03;98719.06;;;2.71;89.42
15487;BME280;7845;53.698;10.078;2024-01-15T02:49:29;98728.28;;;2.75;89.64
15487;BME280;7845;53.698;10.078;2024-01-15T02:51:54;98693.94;;;2.60;89.11
15487;BME280;7845;53.698;10.078;2024-01-15T02:54:19;98731.53;;;2.89;89.29
15487;BME280;7845;53.698;10.078;2024-01-15T02:56:44;98742.13;;;2.86;88.92
15487;BME280;7845;53.698;10.078;2024-01-15T02:59:10;98731.78;;;2.86;89.01
15487;BME280;7845;53.698;10.078;2024-01-15T03:01:35;98753.75;;;2.81;89.18
15487;BME280;7845;53.698;10.078;2024-01-15T03:04:00;98756.66;;;2.76;89.53
15487;BME280;7845;53.698;10.078;2024-01-15T03:06:26;98746.97;;;2.67;89.46
15487;BME280;7845;53.698;10.078;2024-01-15T03:08:51;98751.91;;;2.70;89.64
15487;BME280;7845;53.698;10.078;2024-01-15T03:11:16;98749.47;;;2.69;90.08
15487;BME280;7845;53.698;10.078;2024-01-15T03:13:41;98744.88;;;2.72;89.80
15487;BME280;7845;53.698;10.078;2024-01-15T03:16:07;98749.47;;;2.56;89.77
15487;BME280;7845;53.698;10.078;2024-01-15T03:18:32;98748.38;;;2.47;89.69
15487;BME280;7845;53.698;10.078;2024-01-15T03:20:57;98667.03;;;1.90;89.74
15487;BME280;7845;53.698;10.078;2024-01-15T03:23:23;98752.13;;;2.31;89.88
15487;BME280;7845;53.698;10.078;2024-01-15T03:25:48;98755.97;;;2.25;90.04
15487;BME280;7845;53.698;10.078;2024-01-15T03:28:14;98764.91;;;2.21;90.06
15487;BME280;7845;53.698;10.078;2024-01-15T03:30:39;98764.28;;;2.18;90.31
15487;BME280;7845;53.698;10.078;2024-01-15T03:33:04;98750.00;;;2.12;90.39
15487;BME280;7845;53.698;10.078;2024-01-15T03:35:30;98757.66;;;2.14;90.68
15487;BME280;7845;53.698;10.078;2024-01-15T03:37:56;98764.09;;;2.08;90.37
15487;BME280;7845;53.698;10.078;2024-01-15T03:40:21;98767.59;;;2.20;90.64
15487;BME280;7845;53.698;10.078;2024-01-15T03:42:46;98755.78;;;2.28;90.18
15487;BME280;7845;53.698;10.078;2024-01-15T03:45:12;98758.53;;;2.38;89.77
15487;BME280;7845;53.698;10.078;2024-01-15T03:47:37;98749.75;;;2.40;89.76
15487;BME280;7845;53.698;10.078;2024-01-15T03:50:02;98757.38;;;2.42;89.59
15487;BME280;7845;53.698;10.078;2024-01-15T03:52:28;98764.34;;;2.41;89.33
15487;BME280;7845;53.698;10.078;2024-01-15T03:54:53;98760.31;;;2.37;89.83
15487;BME280;7845;53.698;10.078;2024-01-15T03:57:18;98765.38;;;2.39;89.37
15487;BME280;7845;53.698;10.078;2024-01-15T03:59:43;98757.31;;;2.43;89.23
15487;BME280;7845;53.698;10.078;2024-01-15T04:02:12;98764.41;;;2.52;89.12
15487;BME280;7845;53.698;10.078;2024-01-15T04:04:41;98764.09;;;2.57;89.15
15487;BME280;7845;53.698;10.078;2024-01-15T04:07:06;98748.34;;;2.60;88.96
15487;BME280;7845;53.698;10.078;2024-01-15T04:09:31;98767.47;;;2.70;88.71
15487;BME280;7845;53.698;10.078;2024-01-15T04:11:56;98763.34;;;2.68;88.56
15487;BME280;7845;53.698;10.078;2024-01-15T04:14:22;98769.00;;;2.73;88.41
15487;BME280;7845;53.698;10.078;2024-01-15T04:16:47;98776.69;;;2.74;88.36
15487;BME280;7845;53.698;10.078;2024-01-15T04:19:12;98770.19;;;2.69;88.12
15487;BME280;7845;53.698;10.078;2024-01-15T04:21:38;98767.25;;;2.73;87.88
15487;BME280;7845;53.698;10.078;2024-01-15T04:24:03;98774.78;;;2.76;88.08
15487;BME280;7845;53.698;10.078;2024-01-15T04:26:29;98787.56;;;2.79;87.93
15487;BME280;7845;53.698;10.078;2024-01-15T04:28:54;98774.38;;;2.82;87.62
15487;BME280;7845;53.698;10.078;2024-01-15T04:31:23;98765.19;;;2.66;87.30
15487;BME280;7845;53.698;10.078;2024-01-15T04:33:49;98788.41;;;2.67;87.46
15487;BME280;7845;53.698;10.078;2024-01-15T04:36:14;98779.31;;;2.62;87.66
15487;BME280;7845;53.698;10.078;2024-01-15T04:38:39;98775.59;;;2.53;87.62
15487;BME280;7845;53.698;10.078;2024-01-15T04:41:04;98741.16;;;2.27;87.75
15487;BME280;7845;53.698;10.078;2024-01-15T04:43:30;98780.28;;;2.48;87.96
15487;BME280;7845;53.698;10.078;2024-01-15T04:45:55;98773.16;;;2.39;87.73
15487;BME280;7845;53.698;10.078;2024-01-15T04:48:20;98776.34;;;2.42;88.04
15487;BME280;7845;53.698;10.078;2024-01-15T04:50:47;98781.97;;;2.36;87.97
15487;BME280;7845;53.698;10.078;2024-01-15T04:53:13;98788.06;;;2.35;88.06
15487;BME280;7845;53.698;10.078;2024-01-15T04:55:39;98793.38;;;2.34;88.44
15487;BME280;7845;53.698;10.078;2024-01-15T04:58:04;98785.59;;;2.34;88.47
15487;BME280;7845;53.698;10.078;2024-01-15T05:00:29;98781.13;;;2.36;88.45
15487;BME280;7845;53.698;10.078;2024-01-15T05:02:55;98761.78;;;2.29;88.48
15487;BME280;7845;53.698;10.078;2024-01-15T05:05:21;98776.34;;;2.42;88.51
15487;BME280;7845;53.698;10.078;2024-01-15T05:07:46;98768.56;;;2.55;88.70
15487;BME280;7845;53.698;10.078;2024-01-15T05:10:12;98778.94;;;2.55;87.97
15487;BME280;7845;53.698;10.078;2024-01-15T05:12:37;98782.44;;;2.54;88.29
15487;BME280;7845;53.698;10.078;2024-01-15T05:15:02;98775.59;;;2.53;87.91
15487;BME280;7845;53.698;10.078;2024-01-15T05:17:28;98783.81;;;2.47;88.01
15487;BME280;7845;53.698;10.078;2024-01-15T05:19:53;98784.03;;;2.44;87.84
15487;BME280;7845;53.698;10.078;2024-01-15T05:22:18;98792.00;;;2.41;88.09
15487;BME280;7845;53.698;10.078;2024-01-15T05:24:44;98785.25;;;2.38;88.42
15487;BME280;7845;53.698;10.078;2024-01-15T05:27:09;98773.28;;;2.25;87.94
15487;BME280;7845;53.698;10.078;2024-01-15T05:29:34;98779.38;;;2.36;88.35
15487;BME280;7845;53.698;10.078;2024-01-15T05:32:00;98776.66;;;2.38;88.01
15487;BME280;7845;53.698;10.078;2024-01-15T05:34:25;98789.41;;;2.41;88.20
15487;BME280;7845;53.698;10.078;2024-01-15T05:36:50;98792.50;;;2.46;87.75
15487;BME280;7845;53.698;10.078;2024-01-15T05:39:16;98793.25;;;2.48;88.08
15487;BME280;7845;53.698;10.078;2024-01-15T05:41:41;98786.69;;;2.55;87.89
15487;BME280;7845;53.698;10.078;2024-01-15T05:44:07;98780.97;;;2.63;87.44
15487;BME280;7845;53.698;10.078;2024-01-15T05:46:32;98782.53;;;2.65;87.22
15487;BME280;7845;53.698;10.078;2024-01-15T05:48:57;98758.00;;;2.58;86.86
15487;BME280;7845;53.698;10.078;2024-01-15T05:51:23;98725.53;;;2.29;86.11
15487;BME280;7845;53.698;10.078;2024-01-15T05:53:48;98796.25;;;2.78;86.33
15487;BME280;7845;53.698;10.078;2024-01-15T05:56:13;98786.13;;;2.75;86.26
15487;BME280;7845;53.698;10.078;2024-01-15T05:58:38;98795.66;;;2.75;85.82
15487;BME280;7845;53.698;10.078;2024-01-15T06:01:04;98789.34;;;2.66;85.82
15487;BME280;7845;53.698;10.078;2024-01-15T06:03:29;98797.00;;;2.68;85.97
15487;BME280;7845;53.698;10.078;2024-01-15T06:05:54;98793.38;;;2.70;86.45
15487;BME280;7845;53.698;10.078;2024-01-15T06:08:20;98797.31;;;2.63;85.36
15487;BME280;7845;53.698;10.078;2024-01-15T06:10:46;98721.00;;;2.07;85.32
15487;BME280;7845;53.698;10.078;2024-01-15T06:13:11;98802.63;;;2.62;85.62
15487;BME280;7845;53.698;10.078;2024-01-15T06:15:36;98805.09;;;2.63;85.19
15487;BME280;7845;53.698;10.078;2024-01-15T06:18:02;98800.13;;;2.60;85.44
15487;BME280;7845;53.698;10.078;2024-01-15T06:20:27;98801.06;;;2.59;85.69
15487;BME280;7845;53.698;10.078;2024-01-15T06:22:52;98799.09;;;2.63;85.50
15487;BME280;7845;53.698;10.078;2024-01-15T06:25:18;98790.63;;;2.61;85.55
15487;BME280;7845;53.698;10.078;2024-01-15T06:27:43;98799.44;;;2.58;85.64
15487;BME280;7845;53.698;10.078;2024-01-15T06:30:09;98750.50;;;2.30;86.01
15487;BME280;7845;53.698;10.078;2024-01-15T06:32:34;98796.31;;;2.53;86.29
15487;BME280;7845;53.698;10.078;2024-01-15T06:35:00;98801.28;;;2.56;85.62
15487;BME280;7845;53.698;10.078;2024-01-15T06:37:25;98807.28;;;2.57;86.03
15487;BME280;7845;53.698;10.078;2024-01-15T06:39:50;98797.84;;;2.56;86.06
15487;BME280;7845;53.698;10.078;2024-01-15T06:42:16;98800.44;;;2.56;85.76
15487;BME280;7845;53.698;10.078;2024-01-15T06:44:41;98795.78;;;2.61;85.93
15487;BME280;7845;53.698;10.078;2024-01-15T06:47:06;98754.00;;;2.29;85.35
15487;BME280;7845;53.698;10.078;2024-01-15T06:49:31;98797.25;;;2.65;85.31
15487;BME280;7845;53.698;10.078;2024-01-15T06:51:57;98754.31;;;2.37;84.50
15487;BME280;7845;53.698;10.078;2024-01-15T06:54:22;98760.50;;;2.34;83.98
15487;BME280;7845;53.698;10.078;2024-01-15T06:56:48;98801.19;;;2.58;83.57
15487;BME280;7845;53.698;10.078;2024-01-15T06:59:14;98800.34;;;2.57;83.58
15487;BME280;7845;53.698;10.078;2024-01-15T07:01:39;98811.44;;;2.59;83.34
15487;BME280;7845;53.698;10.078;2024-01-15T07:04:05;98815.06;;;2.57;83.01
15487;BME280;7845;53.698;10.078;2024-01-15T07:06:30;98812.38;;;2.58;83.17
15487;BME280;7845;53.698;10.078;2024-01-15T07:08:56;98774.19;;;2.24;83.13
15487;BME280;7845;53.698;10.078;2024-01-15T07:11:21;98826.16;;;2.59;83.32
15487;BME280;7845;53.698;10.078;2024-01-15T07:13:47;98834.75;;;2.59;83.26
15487;BME280;7845;53.698;10.078;2024-01-15T07:16:12;98832.16;;;2.59;83.43
15487;BME280;7845;53.698;10.078;2024-01-15T07:18:37;98846.66;;;2.62;82.93
15487;BME280;7845;53.698;10.078;2024-01-15T07:21:03;98835.13;;;2.66;82.95
15487;BME280;7845;53.698;10.078;2024-01-15T07:23:31;98838.88;;;2.74;82.81
15487;BME280;7845;53.698;10.078;2024-01-15T07:25:56;98832.13;;;2.72;82.97
15487;BME280;7845;53.698;10.078;2024-01-15T07:28:21;98838.78;;;2.76;82.84
15487;BME280;7845;53.698;10.078;2024-01-15T07:30:46;98854.09;;;2.79;82.63
15487;BME280;7845;53.698;10.078;2024-01-15T07:33:12;98849.84;;;2.78;82.86
15487;BME280;7845;53.698;10.078;2024-01-15T07:35:37;98845.81;;;2.74;82.65
15487;BME280;7845;53.698;10.078;2024-01-15T07:38:03;98788.06;;;2.35;82.75
15487;BME280;7845;53.698;10.078;2024-01-15T07:40:28;98846.41;;;2.77;82.74
15487;BME280;7845;53.698;10.078;2024-01-15T07:42:54;98847.69;;;2.72;82.59
15487;BME280;7845;53.698;10.078;2024-01-15T07:45:19;98844.25;;;2.71;82.75
15487;BME280;7845;53.698;10.078;2024-01-15T07:47:44;98845.19;;;2.70;82.70
15487;BME280;7845;53.698;10.078;2024-01-15T07:50:10;98846.03;;;2.71;82.84
15487;BME280;7845;53.698;10.078;2024-01-15T07:52:35;98850.16;;;2.73;83.12
15487;BME280;7845;53.698;10.078;2024-01-15T07:55:00;98850.53;;;2.80;82.64
15487;BME280;7845;53.698;10.078;2024-01-15T07:57:26;98793.34;;;2.46;82.52
15487;BME280;7845;53.698;10.078;2024-01-15T07:59:51;98853.72;;;2.96;83.18
15487;BME280;7845;53.698;10.078;2024-01-15T08:02:17;98850.53;;;2.92;82.08
15487;BME280;7845;53.698;10.078;2024-01-15T08:04:42;98857.78;;;3.00;82.27
15487;BME280;7845;53.698;10.078;2024-01-15T08:07:07;98863.38;;;2.94;82.01
15487;BME280;7845;53.698;10.078;2024-01-15T08:09:33;98766.31;;;2.38;82.20
15487;BME280;7845;53.698;10.078;2024-01-15T08:11:59;98865.63;;;2.98;82.39
15487;BME280;7845;53.698;10.078;2024-01-15T08:14:24;98864.81;;;2.98;82.39
15487;BME280;7845;53.698;10.078;2024-01-15T08:16:50;98864.59;;;3.01;82.09
15487;BME280;7845;53.698;10.078;2024-01-15T08:19:16;98870.44;;;2.92;82.05
15487;BME280;7845;53.698;10.078;2024-01-15T08:21:41;98870.72;;;3.00;81.89
15487;BME280;7845;53.698;10.078;2024-01-15T08:24:06;98860.97;;;3.03;81.98
15487;BME280;7845;53.698;10.078;2024-01-15T08:26:32;98843.69;;;2.91;81.85
15487;BME280;7845;53.698;10.078;2024-01-15T08:28:57;98854.22;;;3.01;82.13
15487;BME280;7845;53.698;10.078;2024-01-15T08:31:23;98867.25;;;3.12;81.78
15487;BME280;7845;53.698;10.078;2024-01-15T08:33:48;98881.88;;;3.13;81.74
15487;BME280;7845;53.698;10.078;2024-01-15T08:36:14;98882.28;;;3.20;81.44
15487;BME280;7845;53.698;10.078;2024-01-15T08:38:39;98879.22;;;3.26;81.95
15487;BME280;7845;53.698;10.078;2024-01-15T08:41:04;98884.09;;;3.30;81.79
15487;BME280;7845;53.698;10.078;2024-01-15T08:43:30;98889.97;;;3.45;81.72
15487;BME280;7845;53.698;10.078;2024-01-15T08:45:59;98892.94;;;3.51;81.41
15487;BME280;7845;53.698;10.078;2024-01-15T08:48:24;98884.47;;;3.61;81.38
15487;BME280;7845;53.698;10.078;2024-01-15T08:50:54;98892.75;;;3.66;81.50
15487;BME280;7845;53.698;10.078;2024-01-15T08:53:20;98897.81;;;3.56;81.29
15487;BME280;7845;53.698;10.078;2024-01-15T08:55:45;98886.16;;;3.38;81.08
15487;BME280;7845;53.698;10.078;2024-01-15T08:58:11;98908.72;;;3.48;81.60
15487;BME280;7845;53.698;10.078;2024-01-15T09:00:36;98910.78;;;3.56;82.03
15487;BME280;7845;53.698;10.078;2024-01-15T09:03:01;98916.75;;;3.57;82.21
15487;BME280;7845;53.698;10.078;2024-01-15T09:05:27;98917.00;;;3.53;82.09
15487;BME280;7845;53.698;10.078;2024-01-15T09:07:52;98914.78;;;3.60;82.44
15487;BME280;7845;53.698;10.078;2024-01-15T09:10:18;98928.25;;;3.65;82.27
15487;BME280;7845;53.698;10.078;2024-01-15T09:12:44;98923.78;;;3.67;82.64
15487;BME280;7845;53.698;10.078;2024-01-15T09:15:09;98929.19;;;3.64;82.73
15487;BME280;7845;53.698;10.078;2024-01-15T09:17:35;98926.38;;;3.67;82.50
15487;BME280;7845;53.698;10.078;2024-01-15T09:20:00;98870.81;;;3.35;82.79
15487;BME280;7845;53.698;10.078;2024-01-15T09:22:26;98929.56;;;3.71;82.62
15487;BME280;7845;53.698;10.078;2024-01-15T09:24:52;98930.06;;;3.76;82.83
15487;BME280;7845;53.698;10.078;2024-01-15T09:27:17;98917.28;;;3.62;82.93
15487;BME280;7845;53.698;10.078;2024-01-15T09:29:42;98925.56;;;3.67;82.89
15487;BME280;7845;53.698;10.078;2024-01-15T09:32:11;98932.50;;;3.66;82.94
15487;BME280;7845;53.698;10.078;2024-01-15T09:34:37;98934.38;;;3.64;83.41
15487;BME280;7845;53.698;10.078;2024-01-15T09:37:02;98927.44;;;3.65;83.18
15487;BME280;7845;53.698;10.078;2024-01-15T09:39:30;98935.72;;;3.70;83.13
15487;BME280;7845;53.698;10.078;2024-01-15T09:41:56;98925.88;;;3.62;82.74
15487;BME280;7845;53.698;10.078;2024-01-15T09:44:21;98928.25;;;3.65;83.12
15487;BME280;7845;53.698;10.078;2024-01-15T09:46:47;98935.81;;;3.68;83.18
15487;BME280;7845;53.698;10.078;2024-01-15T09:49:18;98938.03;;;3.62;83.01
15487;BME280;7845;53.698;10.078;2024-01-15T09:51:44;98922.34;;;3.39;83.52
15487;BME280;7845;53.698;10.078;2024-01-15T09:54:09;98944.91;;;3.50;83.25
15487;BME280;7845;53.698;10.078;2024-01-15T09:56:35;98963.81;;;3.52;83.54
15487;BME280;7845;53.698;10.078;2024-01-15T09:59:01;98913.00;;;3.13;83.23
15487;BME280;7845;53.698;10.078;2024-01-15T10:01:26;98966.44;;;3.39;83.89
15487;BME280;7845;53.698;10.078;2024-01-15T10:03:52;98967.00;;;3.32;84.14
15487;BME280;7845;53.698;10.078;2024-01-15T10:06:18;98984.19;;;3.33;83.97
15487;BME280;7845;53.698;10.078;2024-01-15T10:08:51;98988.53;;;3.32;83.88
15487;BME280;7845;53.698;10.078;2024-01-15T10:11:16;98985.94;;;3.32;84.37
15487;BME280;7845;53.698;10.078;2024-01-15T10:13:45;98973.72;;;3.34;84.22
15487;BME280;7845;53.698;10.078;2024-01-15T10:16:11;98933.00;;;3.11;84.00
15487;BME280;7845;53.698;10.078;2024-01-15T10:18:37;98991.38;;;3.53;83.81
15487;BME280;7845;53.698;10.078;2024-01-15T10:21:06;98942.91;;;3.30;83.59
15487;BME280;7845;53.698;10.078;2024-01-15T10:23:32;98986.00;;;3.56;83.63
15487;BME280;7845;53.698;10.078;2024-01-15T10:25:58;98996.16;;;3.59;83.55
15487;BME280;7845;53.698;10.078;2024-01-15T10:28:26;98997.47;;;3.65;83.75
15487;BME280;7845;53.698;10.078;2024-01-15T10:30:54;99001.13;;;3.62;83.07
15487;BME280;7845;53.698;10.078;2024-01-15T10:33:22;98996.44;;;3.67;83.11
15487;BME280;7845;53.698;10.078;2024-01-15T10:35:51;98958.03;;;3.36;83.19
15487;BME280;7845;53.698;10.078;2024-01-15T10:38:18;99009.91;;;3.72;82.68
15487;BME280;7845;53.698;10.078;2024-01-15T10:40:47;99017.47;;;3.75;82.93
15487;BME280;7845;53.698;10.078;2024-01-15T10:43:12;99027.19;;;3.61;82.92
15487;BME280;7845;53.698;10.078;2024-01-15T10:45:37;99036.19;;;3.68;83.03
15487;BME280;7845;53.698;10.078;2024-01-15T10:48:03;99038.91;;;3.66;83.22
15487;BME280;7845;53.698;10.078;2024-01-15T10:50:29;99040.75;;;3.64;82.94
15487;BME280;7845;53.698;10.078;2024-01-15T10:52:55;99040.81;;;3.51;83.07
15487;BME280;7845;53.698;10.078;2024-01-15T10:55:23;99041.09;;;3.60;83.47
15487;BME280;7845;53.698;10.078;2024-01-15T10:57:49;99040.66;;;3.66;83.48
15487;BME280;7845;53.698;10.078;2024-01-15T11:00:14;99046.28;;;3.60;83.27
15487;BME280;7845;53.698;10.078;2024-01-15T11:02:40;98952.50;;;3.17;83.40
15487;BME280;7845;53.698;10.078;2024-01-15T11:05:07;99039.28;;;3.73;83.04
15487;BME280;7845;53.698;10.078;2024-01-15T11:07:32;99027.56;;;3.67;83.23
15487;BME280;7845;53.698;10.078;2024-01-15T11:09:57;99040.97;;;3.74;83.04
15487;BME280;7845;53.698;10.078;2024-01-15T11:12:24;99053.81;;;3.75;82.59
15487;BME280;7845;53.698;10.078;2024-01-15T11:14:50;99049.00;;;3.82;82.41
15487;BME280;7845;53.698;10.078;2024-01-15T11:17:17;99045.59;;;3.81;82.37
15487;BME280;7845;53.698;10.078;2024-01-15T11:19:43;99043.78;;;3.94;82.34
15487;BME280;7845;53.698;10.078;2024-01-15T11:22:10;99042.81;;;4.08;82.19
15487;BME280;7845;53.698;10.078;2024-01-15T11:24:40;99041.41;;;4.15;81.94
15487;BME280;7845;53.698;10.078;2024-01-15T11:27:07;99046.84;;;4.12;81.41
15487;BME280;7845;53.698;10.078;2024-01-15T11:29:34;99035.88;;;4.20;81.27
15487;BME280;7845;53.698;10.078;2024-01-15T11:32:09;99046.06;;;4.23;80.98
15487;BME280;7845;53.698;10.078;2024-01-15T11:34:58;99035.44;;;4.26;81.08
15487;BME280;7845;53.698;10.078;2024-01-15T11:37:25;99049.47;;;4.23;76.82
15487;BME280;7845;53.698;10.078;2024-01-15T11:39:52;99047.53;;;4.14;75.04
15487;BME280;7845;53.698;10.078;2024-01-15T11:42:20;99051.44;;;4.09;72.58
15487;BME280;7845;53.698;10.078;2024-01-15T11:44:45;99047.63;;;4.01;72.88
15487;BME280;7845;53.698;10.078;2024-01-15T11:47:12;99050.81;;;4.05;72.22
15487;BME280;7845;53.698;10.078;2024-01-15T11:49:58;99051.22;;;3.99;72.02
15487;BME280;7845;53.698;10.078;2024-01-15T11:52:32;99056.78;;;3.94;71.23
15487;BME280;7845;53.698;10.078;2024-01-15T11:55:11;99056.34;;;4.00;71.10
15487;BME280;7845;53.698;10.078;2024-01-15T11:57:41;99052.69;;;4.03;71.45
15487;BME280;7845;53.698;10.078;2024-01-15T12:00:11;99059.22;;;4.09;71.22
15487;BME280;7845;53.698;10.078;2024-01-15T12:02:41;99048.84;;;4.09;71.62
15487;BME280;7845;53.698;10.078;2024-01-15T12:05:11;99057.59;;;3.95;69.14
15487;BME280;7845;53.698;10.078;2024-01-15T12:07:41;99054.44;;;4.02;69.86
15487;BME280;7845;53.698;10.078;2024-01-15T12:10:10;99054.97;;;3.95;69.12
15487;BME280;7845;53.698;10.078;2024-01-15T12:15:07;99064.19;;;3.88;69.50
15487;BME280;7845;53.698;10.078;2024-01-15T12:17:34;99069.06;;;3.80;69.69
15487;BME280;7845;53.698;10.078;2024-01-15T12:19:59;99062.66;;;3.73;70.03
15487;BME280;7845;53.698;10.078;2024-01-15T12:22:25;99067.00;;;3.72;70.08
15487;BME280;7845;53.698;10.078;2024-01-15T12:24:52;99070.94;;;3.78;70.52
15487;BME280;7845;53.698;10.078;2024-01-15T12:27:18;99083.38;;;3.85;71.20
15487;BME280;7845;53.698;10.078;2024-01-15T12:29:43;99070.63;;;3.82;70.86
15487;BME280;7845;53.698;10.078;2024-01-15T12:32:08;99081.28;;;3.90;71.33
15487;BME280;7845;53.698;10.078;2024-01-15T12:34:34;99084.94;;;3.88;70.34
15487;BME280;7845;53.698;10.078;2024-01-15T12:36:59;99077.06;;;3.77;70.12
15487;BME280;7845;53.698;10.078;2024-01-15T12:39:24;99097.78;;;3.89;70.27
15487;BME280;7845;53.698;10.078;2024-01-15T12:41:51;99087.94;;;3.82;69.03
15487;BME280;7845;53.698;10.078;2024-01-15T12:44:16;99097.09;;;3.75;68.33
15487;BME280;7845;53.698;10.078;2024-01-15T12:46:41;99090.91;;;3.65;67.26
15487;BME280;7845;53.698;10.078;2024-01-15T12:49:07;99105.41;;;3.67;67.64
15487;BME280;7845;53.698;10.078;2024-01-15T12:51:34;99109.16;;;3.76;68.33
15487;BME280;7845;53.698;10.078;2024-01-15T12:53:59;99085.41;;;3.57;67.22
15487;BME280;7845;53.698;10.078;2024-01-15T12:56:25;99111.44;;;3.68;66.53
15487;BME280;7845;53.698;10.078;2024-01-15T12:58:50;99109.19;;;3.63;66.52
15487;BME280;7845;53.698;10.078;2024-01-15T13:01:15;99109.19;;;3.63;66.26
15487;BME280;7845;53.698;10.078;2024-01-15T13:03:41;99109.81;;;3.54;65.82
15487;BME280;7845;53.698;10.078;2024-01-15T13:06:06;99118.94;;;3.47;65.85